createdAt,value
2023-05-13T00:00:13.804Z,8.8614
2023-05-13T00:01:14.798Z,8.8354
2023-05-13T00:02:15.718Z,8.5825
2023-05-13T00:03:16.854Z,8.5137
2023-05-13T00:04:18.809Z,8.9053
2023-05-13T00:05:19.792Z,8.8297
2023-05-13T00:06:20.769Z,8.5623
2023-05-13T00:07:21.728Z,8.6514
2023-05-13T00:08:22.644Z,8.6025
2023-05-13T00:09:23.651Z,8.4255
2023-05-13T00:10:24.635Z,9.3200
2023-05-13T00:11:25.578Z,9.3640
2023-05-13T00:12:26.537Z,9.1403
2023-05-13T00:13:27.475Z,9.6629
2023-05-13T00:14:28.403Z,9.6116
2023-05-13T00:15:29.393Z,9.4129
2023-05-13T00:16:30.406Z,9.5194
2023-05-13T00:17:31.381Z,9.7095
2023-05-13T00:18:32.299Z,9.5610
2023-05-13T00:19:33.265Z,9.5822
2023-05-13T00:20:34.166Z,9.8588
2023-05-13T00:21:35.138Z,9.5835
2023-05-13T00:22:36.044Z,9.1240
2023-05-13T00:23:36.950Z,10.4812
2023-05-13T00:24:37.978Z,9.9942
2023-05-13T00:25:38.952Z,10.5439
2023-05-13T00:26:40.271Z,10.0719
2023-05-13T00:27:41.233Z,10.9544
2023-05-13T00:28:42.131Z,11.1520
2023-05-13T00:29:43.160Z,11.0733
2023-05-13T00:30:44.147Z,10.7129
2023-05-13T00:31:45.069Z,10.6766
2023-05-13T00:32:46.127Z,10.2264
2023-05-13T00:33:47.002Z,11.1682
2023-05-13T00:34:47.978Z,10.6579
2023-05-13T00:35:48.896Z,10.3476
2023-05-13T00:36:49.882Z,10.6978
2023-05-13T00:37:50.831Z,10.5867
2023-05-13T00:38:51.820Z,10.6436
2023-05-13T00:39:52.722Z,10.8142
2023-05-13T00:40:53.670Z,10.9388
2023-05-13T00:41:54.618Z,11.5682
2023-05-13T00:42:55.558Z,10.5846
2023-05-13T00:43:56.461Z,11.1592
2023-05-13T00:44:57.501Z,10.9249
2023-05-13T00:45:58.424Z,11.3008
2023-05-13T00:46:59.396Z,11.7854
2023-05-13T00:48:00.468Z,11.6091
2023-05-13T00:49:01.380Z,11.4349
2023-05-13T00:50:02.355Z,11.4483
2023-05-13T00:51:03.277Z,11.1215
2023-05-13T00:52:04.278Z,12.1198
2023-05-13T00:53:05.254Z,11.3444
2023-05-13T00:54:06.198Z,11.0334
2023-05-13T00:55:07.206Z,10.9429
2023-05-13T00:56:08.133Z,10.8094
2023-05-13T00:57:09.113Z,11.3071
2023-05-13T00:58:10.044Z,12.1020
2023-05-13T00:59:11.023Z,11.6633
2023-05-13T01:00:12.056Z,11.9320
2023-05-13T01:01:13.115Z,11.0231
2023-05-13T01:02:14.027Z,11.1483
2023-05-13T01:03:15.107Z,11.7854
2023-05-13T01:04:16.067Z,11.8179
2023-05-13T01:05:17.075Z,12.1648
2023-05-13T01:06:17.988Z,12.7504
2023-05-13T01:07:18.959Z,11.5765
2023-05-13T01:08:19.855Z,11.5406
2023-05-13T01:09:20.854Z,11.7176
2023-05-13T01:10:22.005Z,12.2210
2023-05-13T01:11:23.163Z,11.2973
2023-05-13T01:12:24.143Z,12.2626
2023-05-13T01:13:25.157Z,11.2468
2023-05-13T01:14:26.114Z,11.2223
2023-05-13T01:15:27.083Z,12.7546
2023-05-13T01:16:28.038Z,12.0678
2023-05-13T01:17:29.054Z,12.1693
2023-05-13T01:18:29.973Z,12.0575
2023-05-13T01:19:30.977Z,12.5743
2023-05-13T01:20:31.860Z,12.3749
2023-05-13T01:21:33.828Z,12.6832
2023-05-13T01:22:34.783Z,12.2992
2023-05-13T01:23:35.748Z,11.7592
2023-05-13T01:24:36.727Z,12.1155
2023-05-13T01:25:37.666Z,11.7416
2023-05-13T01:26:38.643Z,11.6419
2023-05-13T01:27:39.575Z,12.0217
2023-05-13T01:28:40.572Z,12.0807
2023-05-13T01:29:41.467Z,12.1961
2023-05-13T01:30:42.441Z,11.8260
2023-05-13T01:31:43.477Z,12.4756
2023-05-13T01:32:44.427Z,11.8292
2023-05-13T01:33:45.296Z,11.3920
2023-05-13T01:34:46.285Z,11.4235
2023-05-13T01:35:47.306Z,11.7695
2023-05-13T01:36:48.410Z,12.0078
2023-05-13T01:37:50.273Z,11.8517
2023-05-13T01:43:50.084Z,12.7980
2023-05-13T01:43:50.084Z,11.2559
2023-05-13T01:43:50.084Z,11.4112
2023-05-13T01:46:30.919Z,12.5794
2023-05-13T01:46:30.919Z,12.1581
2023-05-13T01:47:18.874Z,11.6075
2023-05-13T01:48:19.868Z,12.8224
2023-05-13T01:49:20.781Z,11.4593
2023-05-13T01:50:21.975Z,11.6967
2023-05-13T01:51:23.016Z,12.0688
2023-05-13T01:52:24.049Z,12.2258
2023-05-13T01:53:24.930Z,11.8912
2023-05-13T01:54:25.918Z,12.5219
2023-05-13T01:55:26.895Z,12.0734
2023-05-13T01:56:27.846Z,12.2293
2023-05-13T01:57:28.813Z,11.9557
2023-05-13T01:58:29.767Z,12.4943
2023-05-13T01:59:30.728Z,12.8612
2023-05-13T02:00:31.686Z,12.5504
2023-05-13T02:01:32.666Z,13.1283
2023-05-13T02:02:33.674Z,12.6392
2023-05-13T02:03:34.630Z,12.7441
2023-05-13T02:04:35.573Z,13.0651
2023-05-13T02:05:36.525Z,13.3067
2023-05-13T02:06:37.484Z,13.6157
2023-05-13T02:07:38.413Z,13.4476
2023-05-13T02:08:39.324Z,13.2091
2023-05-13T02:09:40.308Z,14.0259
2023-05-13T02:10:41.226Z,13.0104
2023-05-13T02:11:42.225Z,13.9204
2023-05-13T02:12:43.235Z,13.6827
2023-05-13T02:13:44.277Z,13.6022
2023-05-13T02:14:46.213Z,13.5689
2023-05-13T02:15:47.195Z,13.9448
2023-05-13T02:16:48.456Z,14.1233
2023-05-13T02:17:49.575Z,14.0636
2023-05-13T02:18:50.592Z,13.7138
2023-05-13T02:19:51.513Z,14.3090
2023-05-13T02:20:52.654Z,14.3189
2023-05-13T02:21:53.562Z,14.0322
2023-05-13T02:22:54.611Z,13.8510
2023-05-13T02:23:55.532Z,13.9377
2023-05-13T02:29:03.951Z,14.3120
2023-05-13T02:29:03.951Z,14.6280
2023-05-13T02:29:03.951Z,13.2648
2023-05-13T02:30:04.862Z,13.2505
2023-05-13T02:31:05.864Z,12.9494
2023-05-13T02:32:07.032Z,13.6235
2023-05-13T02:33:08.190Z,13.6171
2023-05-13T02:34:09.196Z,13.2417
2023-05-13T02:35:10.150Z,13.0436
2023-05-13T02:36:11.189Z,13.2490
2023-05-13T02:37:12.161Z,13.2865
2023-05-13T02:38:13.122Z,12.6972
2023-05-13T02:39:14.150Z,13.1882
2023-05-13T02:40:15.136Z,12.3180
2023-05-13T02:41:16.150Z,13.2320
2023-05-13T02:42:17.158Z,13.1983
2023-05-13T02:43:18.089Z,12.9745
2023-05-13T02:44:19.113Z,13.0685
2023-05-13T02:45:20.091Z,13.0550
2023-05-13T02:46:21.229Z,13.7691
2023-05-13T02:47:22.214Z,13.8771
2023-05-13T02:48:23.202Z,13.9537
2023-05-13T02:49:24.143Z,13.9313
2023-05-13T02:50:25.185Z,13.5809
2023-05-13T02:51:26.124Z,13.1580
2023-05-13T02:52:27.126Z,13.7340
2023-05-13T02:53:28.129Z,14.1308
2023-05-13T02:54:29.100Z,14.5151
2023-05-13T02:55:30.093Z,13.6518
2023-05-13T02:56:31.098Z,14.0630
2023-05-13T02:57:32.094Z,13.9545
2023-05-13T02:58:33.034Z,13.4398
2023-05-13T02:59:34.055Z,13.9477
2023-05-13T03:00:35.007Z,14.7337
2023-05-13T03:01:36.028Z,15.1022
2023-05-13T03:02:37.091Z,14.3157
2023-05-13T03:03:38.214Z,13.5783
2023-05-13T03:04:39.133Z,14.6939
2023-05-13T03:05:40.115Z,13.4984
2023-05-13T03:06:41.141Z,13.5372
2023-05-13T03:07:42.148Z,13.1011
2023-05-13T03:08:43.177Z,14.1754
2023-05-13T03:09:44.143Z,13.6120
2023-05-13T03:10:45.144Z,13.8249
2023-05-13T03:11:46.092Z,14.1829
2023-05-13T03:12:47.092Z,13.6749
2023-05-13T03:13:48.105Z,13.7431
2023-05-13T03:14:49.075Z,13.7023
2023-05-13T03:15:50.100Z,14.8097
2023-05-13T03:16:51.018Z,14.6040
2023-05-13T03:17:52.055Z,13.8902
2023-05-13T03:18:53.047Z,13.7594
2023-05-13T03:19:55.044Z,14.2854
2023-05-13T03:20:56.012Z,14.0166
2023-05-13T03:21:56.987Z,14.3508
2023-05-13T03:22:57.973Z,13.8582
2023-05-13T03:23:58.943Z,14.4036
2023-05-13T03:24:59.887Z,13.5008
2023-05-13T03:26:00.902Z,13.7777
2023-05-13T03:27:01.914Z,14.3181
2023-05-13T03:28:02.889Z,13.5312
2023-05-13T03:29:03.844Z,13.1160
2023-05-13T03:30:04.795Z,13.5176
2023-05-13T03:31:05.999Z,14.4674
2023-05-13T03:32:06.967Z,14.0003
2023-05-13T03:33:07.974Z,14.6802
2023-05-13T03:34:08.915Z,14.5725
2023-05-13T03:35:09.891Z,14.2692
2023-05-13T03:36:10.940Z,13.2623
2023-05-13T03:37:11.935Z,13.6227
2023-05-13T03:38:12.986Z,13.2873
2023-05-13T03:39:13.894Z,12.9609
2023-05-13T03:40:14.856Z,13.2170
2023-05-13T03:41:15.840Z,14.0346
2023-05-13T03:42:16.860Z,14.7016
2023-05-13T03:43:17.801Z,14.2523
2023-05-13T03:44:18.887Z,13.6971
2023-05-13T03:45:19.782Z,13.8554
2023-05-13T03:46:20.738Z,14.0443
2023-05-13T03:47:21.784Z,14.4183
2023-05-13T03:48:22.729Z,14.1530
2023-05-13T03:49:23.681Z,14.4917
2023-05-13T03:50:24.894Z,13.6127
2023-05-13T03:51:25.981Z,13.2556
2023-05-13T03:52:26.993Z,13.6636
2023-05-13T03:53:28.030Z,13.4246
2023-05-13T03:54:28.992Z,13.9243
2023-05-13T03:55:30.017Z,13.4760
2023-05-13T03:56:30.977Z,12.9969
2023-05-13T03:57:31.947Z,14.0670
2023-05-13T03:58:32.957Z,14.2378
2023-05-13T03:59:33.897Z,14.6982
2023-05-13T04:00:34.849Z,14.2070
2023-05-13T04:01:35.935Z,15.4374
2023-05-13T04:02:37.067Z,14.9342
2023-05-13T04:03:38.022Z,13.7754
2023-05-13T04:04:38.989Z,14.0563
2023-05-13T04:05:39.951Z,13.5900
2023-05-13T04:06:40.966Z,13.1482
2023-05-13T04:07:41.926Z,14.0393
2023-05-13T04:08:42.922Z,14.6011
2023-05-13T04:09:43.859Z,14.2132
2023-05-13T04:10:44.868Z,13.7060
2023-05-13T04:11:45.833Z,14.0130
2023-05-13T04:12:46.801Z,13.6263
2023-05-13T04:13:47.808Z,13.6073
2023-05-13T04:14:48.781Z,14.7125
2023-05-13T04:15:49.740Z,14.6203
2023-05-13T04:16:50.850Z,14.0016
2023-05-13T04:17:51.791Z,14.2099
2023-05-13T04:18:52.867Z,14.8168
2023-05-13T04:19:53.830Z,14.0219
2023-05-13T04:20:54.830Z,13.8890
2023-05-13T04:21:55.785Z,14.0051
2023-05-13T04:22:56.730Z,13.3413
2023-05-13T04:23:57.717Z,13.1514
2023-05-13T04:24:58.734Z,13.6869
2023-05-13T04:25:59.648Z,13.7337
2023-05-13T04:27:01.592Z,13.1411
2023-05-13T04:28:02.602Z,13.2418
2023-05-13T04:29:03.645Z,13.5829
2023-05-13T04:30:04.612Z,12.9574
2023-05-13T04:31:05.588Z,14.1394
2023-05-13T04:32:06.677Z,13.2147
2023-05-13T04:33:07.753Z,13.9379
2023-05-13T04:34:08.700Z,13.9754
2023-05-13T04:35:09.769Z,13.1109
2023-05-13T04:36:10.863Z,13.2264
2023-05-13T04:37:12.118Z,13.9369
2023-05-13T04:38:13.087Z,13.0361
2023-05-13T04:39:14.088Z,14.1461
2023-05-13T04:40:15.051Z,12.9174
2023-05-13T04:41:16.123Z,12.3544
2023-05-13T04:42:17.064Z,12.9858
2023-05-13T04:43:18.094Z,14.0136
2023-05-13T04:44:19.038Z,14.1226
2023-05-13T04:45:20.077Z,13.2982
2023-05-13T04:46:21.090Z,13.0441
2023-05-13T04:47:22.195Z,14.4705
2023-05-13T04:48:23.116Z,14.3660
2023-05-13T04:49:24.116Z,13.6691
2023-05-13T04:50:25.330Z,14.0767
2023-05-13T04:51:26.775Z,14.0717
2023-05-13T04:52:28.101Z,13.1824
2023-05-13T04:53:29.094Z,14.1664
2023-05-13T04:54:30.074Z,14.3642
2023-05-13T04:55:31.111Z,13.5261
2023-05-13T04:56:32.057Z,13.9238
2023-05-13T04:57:33.074Z,14.1753
2023-05-13T04:58:34.049Z,14.0666
2023-05-13T04:59:35.039Z,13.8273
2023-05-13T05:00:36.049Z,14.1145
2023-05-13T05:01:37.067Z,14.1346
2023-05-13T05:02:38.053Z,13.9310
2023-05-13T05:03:39.046Z,14.9086
2023-05-13T05:04:39.996Z,13.8944
2023-05-13T05:05:40.999Z,14.2052
2023-05-13T05:06:42.010Z,14.3194
2023-05-13T05:07:43.050Z,14.9386
2023-05-13T05:08:44.022Z,15.7643
2023-05-13T05:09:45.079Z,13.7168
2023-05-13T05:10:45.991Z,14.0524
2023-05-13T05:11:47.025Z,14.4522
2023-05-13T05:12:48.017Z,14.4262
2023-05-13T05:13:49.033Z,13.7869
2023-05-13T05:14:49.987Z,13.6902
2023-05-13T05:15:50.978Z,14.5478
2023-05-13T05:16:52.022Z,14.1095
2023-05-13T05:17:53.086Z,14.1371
2023-05-13T05:18:54.118Z,14.3405
2023-05-13T05:19:55.138Z,14.4281
2023-05-13T05:20:56.117Z,13.6688
2023-05-13T05:21:57.131Z,14.1725
2023-05-13T05:22:58.125Z,14.4671
2023-05-13T05:23:59.149Z,13.9081
2023-05-13T05:25:00.111Z,13.9757
2023-05-13T05:26:11.307Z,14.2511
2023-05-13T05:27:01.453Z,13.5176
2023-05-13T05:28:02.510Z,13.0545
2023-05-13T05:29:03.439Z,14.3778
2023-05-13T05:30:04.482Z,14.2015
2023-05-13T05:31:05.441Z,13.6274
2023-05-13T05:32:06.494Z,13.5055
2023-05-13T05:33:07.518Z,14.0074
2023-05-13T05:34:08.496Z,13.1669
2023-05-13T05:35:09.448Z,13.8028
2023-05-13T05:36:10.405Z,14.2730
2023-05-13T05:37:11.568Z,14.1631
2023-05-13T05:38:12.606Z,14.1295
2023-05-13T05:39:13.548Z,13.6929
2023-05-13T05:40:14.562Z,14.4818
2023-05-13T05:41:15.522Z,14.3859
2023-05-13T05:42:16.521Z,13.3762
2023-05-13T05:43:17.489Z,13.3149
2023-05-13T05:44:18.539Z,14.0153
2023-05-13T05:45:19.545Z,13.6047
2023-05-13T05:46:20.617Z,14.1510
2023-05-13T05:47:21.589Z,13.7975
2023-05-13T05:48:22.639Z,13.8177
2023-05-13T05:49:23.551Z,13.5683
2023-05-13T05:50:24.580Z,12.8862
2023-05-13T05:51:25.534Z,13.3688
2023-05-13T05:52:26.635Z,13.3187
2023-05-13T05:53:27.613Z,13.7679
2023-05-13T05:54:28.578Z,13.3876
2023-05-13T05:55:29.572Z,14.0529
2023-05-13T05:56:30.622Z,13.9591
2023-05-13T05:57:31.672Z,13.3681
2023-05-13T05:58:32.648Z,13.2502
2023-05-13T05:59:33.690Z,13.2594
2023-05-13T06:00:34.724Z,14.3063
2023-05-13T06:01:35.778Z,14.0350
2023-05-13T06:02:36.767Z,13.5229
2023-05-13T06:03:37.988Z,13.3194
2023-05-13T06:04:38.990Z,12.9315
2023-05-13T06:05:40.069Z,12.8686
2023-05-13T06:06:40.980Z,13.0082
2023-05-13T06:07:42.038Z,13.7727
2023-05-13T06:08:43.043Z,13.3379
2023-05-13T06:09:43.967Z,13.7546
2023-05-13T06:10:45.010Z,12.7814
2023-05-13T06:11:46.043Z,13.1620
2023-05-13T06:12:46.998Z,12.8356
2023-05-13T06:14:48.565Z,12.5639
2023-05-13T06:15:49.587Z,13.0399
2023-05-13T06:16:50.746Z,12.5563
2023-05-13T06:17:51.783Z,12.6056
2023-05-13T06:18:52.844Z,13.5474
2023-05-13T06:19:53.866Z,13.2030
2023-05-13T06:20:54.934Z,13.1576
2023-05-13T06:21:55.975Z,13.0897
2023-05-13T06:22:56.980Z,12.5146
2023-05-13T06:23:58.050Z,13.7803
2023-05-13T06:24:59.003Z,13.3613
2023-05-13T06:26:00.242Z,13.2294
2023-05-13T06:27:01.166Z,11.9800
2023-05-13T06:28:03.150Z,12.6572
2023-05-13T06:29:04.253Z,12.0414
2023-05-13T06:30:05.537Z,12.9916
2023-05-13T06:31:06.542Z,12.6493
2023-05-13T06:32:07.726Z,13.1029
2023-05-13T06:33:08.932Z,12.9367
2023-05-13T06:34:10.021Z,11.9244
2023-05-13T06:35:10.965Z,13.1539
2023-05-13T06:36:12.009Z,12.3615
2023-05-13T06:37:13.067Z,12.2485
2023-05-13T06:38:14.366Z,12.8746
2023-05-13T06:39:15.372Z,12.3841
2023-05-13T06:40:16.388Z,12.5388
2023-05-13T06:41:20.821Z,12.7923
2023-05-13T06:42:19.186Z,11.9997
2023-05-13T06:43:20.292Z,12.5546
2023-05-13T06:44:21.253Z,12.9956
2023-05-13T06:45:22.199Z,12.3547
2023-05-13T06:46:23.294Z,12.5890
2023-05-13T06:47:24.283Z,12.2147
2023-05-13T06:48:25.299Z,12.1919
2023-05-13T06:49:27.752Z,12.2194
2023-05-13T06:50:28.902Z,12.5125
2023-05-13T06:51:29.598Z,12.0397
2023-05-13T06:52:31.972Z,12.3901
2023-05-13T06:53:31.237Z,11.6430
2023-05-13T06:54:33.128Z,12.0579
2023-05-13T06:55:35.293Z,12.0118
2023-05-13T06:56:39.357Z,11.5008
2023-05-13T06:57:43.014Z,12.4233
2023-05-13T06:58:39.437Z,12.1580
2023-05-13T06:59:42.079Z,12.1546
2023-05-13T07:00:45.180Z,11.9451
2023-05-13T07:01:46.618Z,12.2918
2023-05-13T07:02:48.373Z,11.4911
2023-05-13T07:03:50.463Z,11.8422
2023-05-13T07:04:51.786Z,12.5832
2023-05-13T07:15:45.464Z,11.6842
2023-05-13T07:16:05.652Z,12.0286
2023-05-13T07:17:19.608Z,13.0462
2023-05-13T07:21:06.941Z,12.0261
2023-05-13T07:22:11.272Z,13.4025
2023-05-13T07:23:10.160Z,12.7151
2023-05-13T07:24:12.166Z,12.9185
2023-05-13T07:25:11.560Z,12.4917
2023-05-13T07:26:12.764Z,12.7530
2023-05-13T07:27:14.991Z,12.5798
2023-05-13T07:28:17.084Z,11.9359
2023-05-13T07:29:20.287Z,11.6261
2023-05-13T07:31:55.489Z,11.6722
2023-05-13T07:31:55.489Z,12.2838
2023-05-13T07:32:57.602Z,12.0397
2023-05-13T07:33:58.216Z,11.9518
2023-05-13T07:34:57.968Z,12.6036
2023-05-13T07:35:59.882Z,11.9562
2023-05-13T07:37:01.007Z,11.8946
2023-05-13T07:38:02.338Z,12.1806
2023-05-13T07:39:03.330Z,12.6539
2023-05-13T07:40:04.391Z,13.4136
2023-05-13T07:41:05.447Z,12.5596
2023-05-13T07:42:06.580Z,12.6587
2023-05-13T07:43:07.704Z,12.4728
2023-05-13T07:44:08.732Z,12.6794
2023-05-13T07:45:09.759Z,12.4217
2023-05-13T07:46:12.946Z,11.8735
2023-05-13T07:48:57.173Z,11.8165
2023-05-13T07:49:58.441Z,13.6939
2023-05-13T07:50:59.355Z,12.9360
2023-05-13T07:52:00.401Z,11.9929
2023-05-13T07:53:01.379Z,12.9049
2023-05-13T07:54:02.474Z,12.5463
2023-05-13T07:55:03.448Z,12.9555
2023-05-13T07:56:04.505Z,12.1171
2023-05-13T07:57:05.514Z,12.3770
2023-05-13T07:58:06.513Z,11.4712
2023-05-13T07:59:07.524Z,12.3535
2023-05-13T08:00:09.686Z,12.4164
2023-05-13T08:01:10.628Z,11.7201
2023-05-13T08:02:11.661Z,11.6185
2023-05-13T08:04:14.407Z,11.8727
2023-05-13T08:05:16.373Z,11.8388
2023-05-13T08:08:29.587Z,11.7299
2023-05-13T08:13:10.589Z,11.7972
2023-05-13T08:13:10.589Z,11.2158
2023-05-13T08:13:10.589Z,11.2587
2023-05-13T08:20:08.238Z,12.3613
2023-05-13T08:20:08.238Z,11.0595
2023-05-13T08:20:08.238Z,11.9223
2023-05-13T08:23:44.035Z,12.5678
2023-05-13T08:23:44.035Z,10.9719
2023-05-13T08:23:44.035Z,11.0333
2023-05-13T08:24:33.562Z,12.5540
2023-05-13T08:25:34.519Z,12.6216
2023-05-13T08:26:35.548Z,11.2913
2023-05-13T08:27:38.084Z,11.6237
2023-05-13T08:28:39.144Z,11.4539
2023-05-13T08:29:40.185Z,12.3751
2023-05-13T08:30:41.163Z,11.7903
2023-05-13T08:31:42.185Z,12.5730
2023-05-13T08:32:43.238Z,12.1895
2023-05-13T08:33:44.296Z,12.0424
2023-05-13T08:34:45.313Z,11.8861
2023-05-13T08:35:46.411Z,11.5280
2023-05-13T08:36:47.448Z,11.7672
2023-05-13T08:37:48.525Z,11.8152
2023-05-13T08:38:49.582Z,11.9741
2023-05-13T08:39:50.636Z,12.5251
2023-05-13T08:40:51.693Z,12.7914
2023-05-13T08:41:52.773Z,12.1529
2023-05-13T08:42:53.866Z,12.3752
2023-05-13T08:43:55.025Z,12.9529
2023-05-13T08:44:56.031Z,11.9570
2023-05-13T08:45:58.202Z,12.0770
2023-05-13T08:46:59.257Z,12.6634
2023-05-13T08:48:00.525Z,11.9679
2023-05-13T08:49:02.711Z,12.5741
2023-05-13T08:50:04.682Z,12.3125
2023-05-13T08:51:05.936Z,12.1878
2023-05-13T08:52:07.196Z,11.4585
2023-05-13T08:53:08.300Z,11.7759
2023-05-13T08:54:09.433Z,10.7064
2023-05-13T08:55:10.473Z,11.8438
2023-05-13T08:56:11.870Z,11.4374
2023-05-13T08:57:13.424Z,11.9931
2023-05-13T08:58:14.549Z,10.7570
2023-05-13T08:59:15.832Z,11.7611
2023-05-13T09:00:17.983Z,11.2606
2023-05-13T09:01:20.088Z,11.7931
2023-05-13T09:02:21.243Z,11.3803
2023-05-13T09:03:22.474Z,10.8730
2023-05-13T09:04:23.992Z,10.8542
2023-05-13T09:05:25.807Z,10.7685
2023-05-13T09:06:27.191Z,11.0644
2023-05-13T09:07:28.870Z,11.2414
2023-05-13T09:08:30.502Z,10.1827
2023-05-13T09:09:31.897Z,9.9950
2023-05-13T10:10:07.314Z,10.6838
2023-05-13T10:10:07.314Z,9.4580
2023-05-13T10:10:07.314Z,11.2721
2023-05-13T10:11:08.271Z,11.7075
2023-05-13T10:12:09.234Z,11.1701
2023-05-13T10:13:10.258Z,10.6372
2023-05-13T10:14:11.332Z,9.8854
2023-05-13T10:15:12.462Z,10.3413
2023-05-13T10:16:14.510Z,10.9298
2023-05-13T10:17:15.547Z,10.4436
2023-05-13T10:18:16.674Z,10.5623
2023-05-13T10:19:17.818Z,10.2342
2023-05-13T10:20:19.394Z,10.1224
2023-05-13T10:21:21.519Z,10.9476
2023-05-13T10:45:47.439Z,11.1651
2023-05-13T10:45:47.439Z,10.5860
2023-05-13T10:45:47.439Z,10.9100
2023-05-13T10:46:29.278Z,9.6077
2023-05-13T10:47:30.544Z,9.5698
2023-05-13T10:48:31.830Z,9.5001
2023-05-13T10:49:33.180Z,8.9401
2023-05-13T10:50:34.248Z,9.4215
2023-05-13T10:51:35.272Z,9.4927
2023-05-13T10:52:36.401Z,10.3137
2023-05-13T10:53:37.480Z,9.9950
2023-05-13T10:54:38.481Z,10.3170
2023-05-13T10:55:39.622Z,10.1776
2023-05-13T10:56:40.682Z,10.1445
2023-05-13T10:57:41.661Z,10.7954
2023-05-13T10:58:42.826Z,11.0624
2023-05-13T10:59:43.996Z,11.6014
2023-05-13T11:00:45.051Z,10.2705
2023-05-13T11:01:46.324Z,10.4424
2023-05-13T11:02:47.491Z,10.2694
2023-05-13T11:03:49.676Z,10.1280
2023-05-13T11:04:50.645Z,10.3136
2023-05-13T11:05:55.999Z,10.8501
2023-05-13T11:29:18.527Z,9.4996
2023-05-13T11:29:18.527Z,9.9523
2023-05-13T11:29:18.527Z,8.9469
2023-05-13T11:30:13.373Z,8.0309
2023-05-13T11:31:16.537Z,8.9777
2023-05-13T11:36:55.742Z,9.2583
2023-05-13T11:36:55.742Z,8.9482
2023-05-13T15:10:53.957Z,8.6065
2023-05-13T15:10:53.957Z,8.1593
2023-05-13T15:10:53.957Z,9.1086
2023-05-13T15:11:15.262Z,10.1062
2023-05-13T15:12:16.682Z,9.2113
2023-05-13T15:13:16.750Z,9.1713
2023-05-13T15:14:18.139Z,7.5207
2023-05-13T15:15:19.535Z,9.4005
2023-05-13T15:17:23.268Z,9.4667
2023-05-13T15:18:25.936Z,10.1186
2023-05-13T15:19:29.496Z,10.7868
2023-05-13T15:20:31.336Z,9.8510
2023-05-13T15:21:34.105Z,9.8711
2023-05-13T15:22:35.268Z,10.2055
2023-05-13T15:23:38.516Z,10.5242
2023-05-13T15:24:41.169Z,10.8120
2023-05-13T15:25:44.058Z,10.3010
2023-05-13T15:26:43.966Z,10.2650
2023-05-13T15:27:46.023Z,9.5270
2023-05-13T15:28:49.658Z,10.6086
2023-05-13T15:29:47.820Z,10.4734
2023-05-13T15:30:50.534Z,11.6545
2023-05-13T15:31:53.470Z,11.7818
2023-05-13T15:32:53.579Z,11.5972
2023-05-13T15:33:56.365Z,11.2347
2023-05-13T15:34:59.088Z,11.7001
2023-05-13T15:35:58.491Z,11.5164
2023-05-13T15:37:00.714Z,11.3965
2023-05-13T15:38:02.134Z,11.8208
2023-05-13T15:39:03.308Z,10.9783
2023-05-13T15:40:04.522Z,11.2284
2023-05-13T15:41:05.947Z,12.3841
2023-05-13T15:42:07.224Z,11.3507
2023-05-13T15:43:08.423Z,11.1001
2023-05-13T15:44:09.603Z,12.0239
2023-05-13T15:45:10.773Z,12.1065
2023-05-13T15:46:12.084Z,11.5984
2023-05-13T15:47:13.513Z,11.9327
2023-05-13T15:48:15.699Z,11.2995
2023-05-13T15:49:17.330Z,11.6393
2023-05-13T15:50:19.241Z,12.0801
2023-05-13T15:51:21.617Z,12.5298
2023-05-13T15:52:23.139Z,11.6113
2023-05-13T15:53:24.322Z,12.1573
2023-05-13T15:54:26.113Z,11.4607
2023-05-13T15:55:27.386Z,11.4249
2023-05-13T15:56:28.728Z,10.4752
2023-05-13T15:57:29.874Z,12.0534
2023-05-13T15:58:31.957Z,11.7533
2023-05-13T15:59:33.164Z,11.5074
2023-05-13T16:00:34.281Z,11.5496
2023-05-13T16:01:36.623Z,12.4966
2023-05-13T16:02:37.755Z,11.4908
2023-05-13T16:03:39.276Z,11.8226
2023-05-13T16:04:40.546Z,12.7379
2023-05-13T16:05:41.773Z,12.1873
2023-05-13T16:06:43.026Z,13.2834
2023-05-13T16:07:44.182Z,13.4135
2023-05-13T16:08:45.298Z,12.6874
2023-05-13T16:09:46.609Z,12.4738
2023-05-13T16:10:48.353Z,13.2275
2023-05-13T16:11:49.742Z,12.3577
2023-05-13T16:12:50.976Z,11.6514
2023-05-13T16:13:52.255Z,12.2394
2023-05-13T16:14:53.402Z,12.1258
2023-05-13T16:15:55.192Z,12.4282
2023-05-13T16:16:57.337Z,11.7966
2023-05-13T16:17:58.713Z,11.8374
2023-05-13T16:19:00.141Z,12.1292
2023-05-13T16:20:01.552Z,12.1568
2023-05-13T16:21:02.963Z,12.5162
2023-05-13T16:22:04.449Z,12.0463
2023-05-13T16:23:05.585Z,11.5227
2023-05-13T16:24:07.251Z,12.6398
2023-05-13T16:25:09.501Z,11.8817
2023-05-13T16:26:10.595Z,11.6646
2023-05-13T16:27:11.761Z,11.6362
2023-05-13T16:28:13.109Z,11.7446
2023-05-13T16:29:15.709Z,11.6013
2023-05-13T16:30:16.971Z,12.3487
2023-05-13T16:31:18.164Z,13.0752
2023-05-13T16:32:19.818Z,12.5755
2023-05-13T16:33:21.971Z,13.2237
2023-05-13T16:34:23.286Z,12.8879
2023-05-13T16:35:24.597Z,12.5706
2023-05-13T16:36:25.871Z,12.7834
2023-05-13T16:37:26.986Z,12.9908
2023-05-13T16:38:28.087Z,13.3982
2023-05-13T16:39:29.749Z,13.2760
2023-05-13T16:40:30.859Z,12.9688
2023-05-13T16:41:31.978Z,14.2475
2023-05-13T16:42:33.369Z,13.3165
2023-05-13T16:43:34.506Z,14.2346
2023-05-13T16:44:35.669Z,13.7484
2023-05-13T16:45:36.901Z,15.1188
2023-05-13T16:46:40.115Z,16.6249
2023-05-13T16:47:42.325Z,15.2776
2023-05-13T16:48:44.747Z,16.3802
2023-05-13T16:49:45.901Z,14.9332
2023-05-13T16:50:47.026Z,13.7009
2023-05-13T16:51:48.402Z,14.9955
2023-05-13T16:52:49.490Z,14.4099
2023-05-13T16:53:50.791Z,14.7091
2023-05-13T16:54:51.937Z,19.3378
2023-05-13T16:55:53.435Z,15.9160
2023-05-13T16:56:54.674Z,16.9487
2023-05-13T16:57:55.825Z,18.1091
2023-05-13T16:58:57.312Z,15.6358
2023-05-13T16:59:58.676Z,14.6740
2023-05-13T17:00:59.983Z,15.9561
2023-05-13T17:02:02.263Z,15.8984
2023-05-13T17:03:04.921Z,16.0830
2023-05-13T17:04:06.214Z,14.8871
2023-05-13T17:05:07.625Z,16.8733
2023-05-13T17:06:09.680Z,17.4175
2023-05-13T17:07:11.103Z,15.7855
2023-05-13T17:08:12.488Z,15.5948
2023-05-13T17:09:13.670Z,15.8064
2023-05-13T17:10:15.082Z,15.4414
2023-05-13T17:11:16.214Z,18.7420
2023-05-13T17:12:18.458Z,15.8924
2023-05-13T17:13:19.881Z,17.2741
2023-05-13T17:14:21.717Z,18.7232
2023-05-13T17:15:23.028Z,20.3398
2023-05-13T17:16:24.447Z,19.7210
2023-05-13T17:17:25.715Z,137.6271
2023-05-13T17:18:26.899Z,87.5260
2023-05-13T17:19:29.016Z,66.7160
2023-05-13T17:20:30.604Z,80.3203
2023-05-13T17:21:32.089Z,30.6951
2023-05-13T17:22:33.217Z,19.6521
2023-05-13T17:23:34.525Z,31.4817
2023-05-13T17:24:36.814Z,22.8574
2023-05-13T17:25:36.057Z,16.7899
2023-05-13T17:26:38.603Z,15.0445
2023-05-13T17:27:38.079Z,15.2683
2023-05-13T17:28:39.516Z,16.1757
2023-05-13T17:29:40.745Z,15.0178
2023-05-13T17:30:41.822Z,15.3694
2023-05-13T17:31:43.299Z,15.1881
2023-05-13T17:32:45.493Z,16.4104
2023-05-13T17:33:46.979Z,17.1255
2023-05-13T17:34:48.411Z,17.5299
2023-05-13T17:35:49.788Z,17.2185
2023-05-13T17:36:50.948Z,16.1765
2023-05-13T17:37:52.567Z,15.9986
2023-05-13T17:38:53.881Z,16.1773
2023-05-13T17:39:55.100Z,16.6586
2023-05-13T17:40:56.535Z,17.4793
2023-05-13T17:41:57.981Z,17.0516
2023-05-13T17:42:59.488Z,16.4529
2023-05-13T17:44:00.768Z,16.1798
2023-05-13T17:45:02.619Z,15.6006
2023-05-13T17:46:03.881Z,16.0013
2023-05-13T17:47:05.054Z,15.3724
2023-05-13T17:48:06.300Z,16.2691
2023-05-13T17:49:07.417Z,16.5660
2023-05-13T17:50:08.569Z,16.8751
2023-05-13T17:51:09.757Z,16.5056
2023-05-13T17:52:11.144Z,15.7943
2023-05-13T17:53:12.431Z,15.6646
2023-05-13T17:54:13.594Z,17.0581
2023-05-13T17:55:15.922Z,15.1093
2023-05-13T17:56:15.268Z,16.2982
2023-05-13T17:57:16.916Z,16.1622
2023-05-13T17:58:18.386Z,15.9106
2023-05-13T17:59:20.008Z,15.9110
2023-05-13T18:00:21.594Z,15.3079
2023-05-13T18:01:24.175Z,15.3425
2023-05-13T18:02:25.403Z,16.6641
2023-05-13T18:03:26.550Z,16.1188
2023-05-13T18:04:28.159Z,16.4736
2023-05-13T18:05:30.728Z,16.1102